Preview of NWS' New Version of Forecast
This preview is not operational and should not be used for support decisions.

Terminal Aerodrome Forecast (TAF)

Issued by National Weather Service (NWS)

                            
000
FTUS43 KDMX 221733
TAFALO
TAF
KALO 221733Z 2218/2318 36004KT P6SM SCT035
     FM230000 VRB03KT P6SM SKC
     FM231300 12007KT P6SM SKC=